Gregory — WDF2419 — position and weather

sailwx.info

Track history (hours):
 
Tides and Currents Weather Stations Pressure Air Temp Water Temp Dewpoint Dewpoint Depression Visibility Wind Speed Wind Dir Waves Ship Positions

Gregory

Owner: Enterprise Marine Services, LLC, San Antonio, TX. More information available from US FCC via Universal Licensing System and Coast Guard Vessel Documentation Center.

Last reported at 2017-Nov-19 16:08 UTC. Time now 2017-Nov-21 23:17 UTC.
Position N 29°46' W 095°05'.

Length 21 m; draft 3 m.

Type: . MMSI: 367003370.

Date/timePositionNaut miles runAvg speedWind from/ knotsBaromVisibWave heightAir tempDewpointWater temp
2017-Nov-19 16:08N 29°46' W 095°05'1 0.1
2017-Nov-18 23:38N 29°45' W 095°05'0 2.0
2017-Nov-18 23:28N 29°46' W 095°05'1 0.1
2017-Nov-18 17:13N 29°46' W 095°05'1 4.7
2017-Nov-18 16:55N 29°45' W 095°04'2 0.1
2017-Nov-17 15:38N 29°46' W 095°06'1 3.5
2017-Nov-17 15:25N 29°46' W 095°05'1 0.1
2017-Nov-17 10:55N 29°46' W 095°04'3 5.3
2017-Nov-17 10:23N 29°44' W 095°02'2 5.0
2017-Nov-17 10:01N 29°42' W 095°01'3 5.4
2017-Nov-17 09:30N 29°40' W 094°59'3 5.7
2017-Nov-17 09:01N 29°38' W 094°58'4 5.8
2017-Nov-17 08:15N 29°34' W 094°55'2 5.9
2017-Nov-17 08:00N 29°33' W 094°54'64 4.0
2017-Nov-16 16:10N 29°59' W 093°47'0 0.7
2017-Nov-16 15:49N 29°59' W 093°47'0 0.8
2017-Nov-16 15:31N 29°60' W 093°47'1 1.4
2017-Nov-16 14:48N 30°00' W 093°46'2 0.2
2017-Nov-16 05:21N 30°02' W 093°44'2 5.3
2017-Nov-16 05:00N 30°03' W 093°43'2 4.8
2017-Nov-16 04:30N 30°04' W 093°40'2 3.9
2017-Nov-16 04:01N 30°04' W 093°38'3 4.5
2017-Nov-16 03:18N 30°04' W 093°34'1 4.7
2017-Nov-16 03:00N 30°04' W 093°33'2 4.8
2017-Nov-16 02:31N 30°04' W 093°30'2 4.5
2017-Nov-16 02:01N 30°04' W 093°27'2 4.3
2017-Nov-16 01:31N 30°04' W 093°25'2 4.8
2017-Nov-16 01:01N 30°04' W 093°22'2 3.7
2017-Nov-16 00:31N 30°05' W 093°20'1 2.5
2017-Nov-16 00:01N 30°06' W 093°20'2 4.4
2017-Nov-15 23:31N 30°08' W 093°20'1 1.2
2017-Nov-15 23:01N 30°08' W 093°20'0 0.9
2017-Nov-15 22:31N 30°08' W 093°20'0 0.6
2017-Nov-15 22:01N 30°08' W 093°19'0 0.0
2017-Nov-15 21:31N 30°08' W 093°19'0 0.0
2017-Nov-15 21:01N 30°08' W 093°19'0 0.0
2017-Nov-15 20:31N 30°08' W 093°19'0 0.0
2017-Nov-15 20:01N 30°08' W 093°19'0 0.0
2017-Nov-15 19:31N 30°08' W 093°19'0 0.0
2017-Nov-15 19:01N 30°08' W 093°19'0 0.0
2017-Nov-15 18:31N 30°08' W 093°19'0 0.0
2017-Nov-15 18:01N 30°08' W 093°19'0 0.0
2017-Nov-15 17:31N 30°08' W 093°19'0 0.0
2017-Nov-15 17:01N 30°08' W 093°19'0 0.0
2017-Nov-15 16:30N 30°08' W 093°19'0 0.0
2017-Nov-15 16:01N 30°08' W 093°19'0 0.0
2017-Nov-15 15:31N 30°08' W 093°19'0 0.0
2017-Nov-15 14:59N 30°08' W 093°19'0 0.0
2017-Nov-15 14:29N 30°08' W 093°19'0 0.0
2017-Nov-15 13:59N 30°08' W 093°19'0 0.0
2017-Nov-15 13:29N 30°08' W 093°19'0 0.0
2017-Nov-15 12:59N 30°08' W 093°19'0 0.0
2017-Nov-15 12:29N 30°08' W 093°19'0 0.0
2017-Nov-15 11:59N 30°08' W 093°19'0 0.0
2017-Nov-15 11:29N 30°08' W 093°19'0 0.0
2017-Nov-15 10:59N 30°08' W 093°19'0 0.0
2017-Nov-15 10:29N 30°08' W 093°19'0 0.0
2017-Nov-15 09:59N 30°08' W 093°19'0 0.0
2017-Nov-15 09:29N 30°08' W 093°19'0 0.0
2017-Nov-15 08:59N 30°08' W 093°19'0 0.0
2017-Nov-15 08:29N 30°08' W 093°19'0 0.0
2017-Nov-15 07:59N 30°08' W 093°19'0 0.0
2017-Nov-15 07:29N 30°08' W 093°19'0 0.0
2017-Nov-15 06:59N 30°08' W 093°19'0 0.0
2017-Nov-15 06:29N 30°08' W 093°19'0 0.0
2017-Nov-15 05:59N 30°08' W 093°19'0 0.0
2017-Nov-15 05:29N 30°08' W 093°19'0 0.0
2017-Nov-15 04:59N 30°08' W 093°19'0 0.0
2017-Nov-15 04:29N 30°08' W 093°19'0 0.0
2017-Nov-15 03:59N 30°08' W 093°19'0 0.0
2017-Nov-15 03:29N 30°08' W 093°19'0 0.0
2017-Nov-15 02:59N 30°08' W 093°19'0 0.0
2017-Nov-15 02:29N 30°08' W 093°19'0 0.0
2017-Nov-15 01:59N 30°08' W 093°19'0 0.0
2017-Nov-15 01:29N 30°08' W 093°19'0 0.0
2017-Nov-15 00:59N 30°08' W 093°19'1 1.8
2017-Nov-15 00:30N 30°08' W 093°20'2 4.2
2017-Nov-15 00:00N 30°05' W 093°20'1 2.6
2017-Nov-14 23:27N 30°04' W 093°21'1 1.7
2017-Nov-14 22:58N 30°04' W 093°21'0 0.0
2017-Nov-14 22:28N 30°04' W 093°21'0 0.0
2017-Nov-14 21:58N 30°04' W 093°21'0 0.0
2017-Nov-14 21:28N 30°04' W 093°21'0 0.0
2017-Nov-14 20:58N 30°04' W 093°21'0 0.0
2017-Nov-14 20:28N 30°04' W 093°21'0 0.0
2017-Nov-14 19:58N 30°04' W 093°21'0 0.0
2017-Nov-14 19:28N 30°04' W 093°21'0 0.0
2017-Nov-14 18:58N 30°04' W 093°21'0 0.0
2017-Nov-14 18:28N 30°04' W 093°21'0 0.0
2017-Nov-14 17:58N 30°04' W 093°21'0 0.0
2017-Nov-14 17:28N 30°04' W 093°21'0 0.0
2017-Nov-14 16:58N 30°04' W 093°21'0 0.0
2017-Nov-14 16:28N 30°04' W 093°21'0 0.0
2017-Nov-14 15:58N 30°04' W 093°21'0 0.0
2017-Nov-14 15:28N 30°04' W 093°21'0 0.0
2017-Nov-14 14:58N 30°04' W 093°21'0 0.0
2017-Nov-14 14:28N 30°04' W 093°21'0 0.0
2017-Nov-14 13:58N 30°04' W 093°21'0 0.5
2017-Nov-14 13:30N 30°04' W 093°21'1 1.1
2017-Nov-14 13:00N 30°04' W 093°21'0 0.0
2017-Nov-14 11:35N 30°04' W 093°21'0 0.0
2017-Nov-14 11:25N 30°04' W 093°21'0 0.2
2017-Nov-14 10:59N 30°04' W 093°21'1 3.0
2017-Nov-14 10:29N 30°04' W 093°22'98 2.7
2017-Nov-12 22:49N 29°44' W 095°12'0 0.0
2017-Nov-12 21:40N 29°44' W 095°12'0 0.0
2017-Nov-12 21:10N 29°44' W 095°12'0 0.0
2017-Nov-12 20:59N 29°44' W 095°12'0 0.0
2017-Nov-12 20:29N 29°44' W 095°12'0 0.0
2017-Nov-12 19:29N 29°44' W 095°12'0 0.0
2017-Nov-12 17:29N 29°44' W 095°12'0 0.0
2017-Nov-12 16:56N 29°44' W 095°12'0 0.0
2017-Nov-12 16:27N 29°44' W 095°12'0 0.2
2017-Nov-12 15:13N 29°44' W 095°12'0 0.0
2017-Nov-12 14:48N 29°44' W 095°12'0 0.0
2017-Nov-12 14:13N 29°44' W 095°12'0 0.0
2017-Nov-12 13:40N 29°44' W 095°12'0 0.0
2017-Nov-12 13:27N 29°44' W 095°12'0 0.0
2017-Nov-12 13:00N 29°44' W 095°12'0 0.0
2017-Nov-12 12:19N 29°44' W 095°12'0 0.0
2017-Nov-12 11:46N 29°44' W 095°12'0 0.4
2017-Nov-12 11:24N 29°44' W 095°12'0 0.0
2017-Nov-12 10:56N 29°44' W 095°12'0 0.0
2017-Nov-12 10:20N 29°44' W 095°12'0 0.0
2017-Nov-12 09:48N 29°44' W 095°12'0 0.0
2017-Nov-12 07:11N 29°44' W 095°12'0 0.0
2017-Nov-12 06:50N 29°44' W 095°12'0 0.0
2017-Nov-12 06:05N 29°44' W 095°12'0 0.0
2017-Nov-12 05:48N 29°44' W 095°12'0 0.0
2017-Nov-12 05:24N 29°44' W 095°12'0 0.0
2017-Nov-12 04:37N 29°44' W 095°12'0 0.0
2017-Nov-12 04:23N 29°44' W 095°12'0 1.0
2017-Nov-12 04:00N 29°44' W 095°12'2 4.2
2017-Nov-12 03:30N 29°45' W 095°10'2 4.4
2017-Nov-12 03:00N 29°44' W 095°07'3 5.2
2017-Nov-12 02:29N 29°46' W 095°05'  
2017-Nov-09 17:08N 29°44' W 095°03'1 5.2
2017-Nov-09 16:58N 29°44' W 095°02'2 4.3
2017-Nov-09 16:30N 29°42' W 095°01'  
Track history (hours):
 
Tides and Currents Weather Stations Pressure Air Temp Water Temp Dewpoint Dewpoint Depression Visibility Wind Speed Wind Dir Waves Ship Positions

Gregory

Owner: Enterprise Marine Services, LLC, San Antonio, TX. More information available from US FCC via Universal Licensing System and Coast Guard Vessel Documentation Center.

Last reported at 2017-Nov-19 16:08 UTC. Time now 2017-Nov-21 23:17 UTC.
Position N 29°46' W 095°05'.

Length 21 m; draft 3 m.

Type: . MMSI: 367003370.

Date/timePositionNaut miles runAvg speedWind from/ knotsBaromVisibWave heightAir tempDewpointWater temp
2017-Nov-19 16:08N 29°46' W 095°05'1 0.1
2017-Nov-18 23:38N 29°45' W 095°05'0 2.0
2017-Nov-18 23:28N 29°46' W 095°05'1 0.1
2017-Nov-18 17:13N 29°46' W 095°05'1 4.7
2017-Nov-18 16:55N 29°45' W 095°04'2 0.1
2017-Nov-17 15:38N 29°46' W 095°06'1 3.5
2017-Nov-17 15:25N 29°46' W 095°05'1 0.1
2017-Nov-17 10:55N 29°46' W 095°04'3 5.3
2017-Nov-17 10:23N 29°44' W 095°02'2 5.0
2017-Nov-17 10:01N 29°42' W 095°01'3 5.4
2017-Nov-17 09:30N 29°40' W 094°59'3 5.7
2017-Nov-17 09:01N 29°38' W 094°58'4 5.8
2017-Nov-17 08:15N 29°34' W 094°55'2 5.9
2017-Nov-17 08:00N 29°33' W 094°54'64 4.0
2017-Nov-16 16:10N 29°59' W 093°47'0 0.7
2017-Nov-16 15:49N 29°59' W 093°47'0 0.8
2017-Nov-16 15:31N 29°60' W 093°47'1 1.4
2017-Nov-16 14:48N 30°00' W 093°46'2 0.2
2017-Nov-16 05:21N 30°02' W 093°44'2 5.3
2017-Nov-16 05:00N 30°03' W 093°43'2 4.8
2017-Nov-16 04:30N 30°04' W 093°40'2 3.9
2017-Nov-16 04:01N 30°04' W 093°38'3 4.5
2017-Nov-16 03:18N 30°04' W 093°34'1 4.7
2017-Nov-16 03:00N 30°04' W 093°33'2 4.8
2017-Nov-16 02:31N 30°04' W 093°30'2 4.5
2017-Nov-16 02:01N 30°04' W 093°27'2 4.3
2017-Nov-16 01:31N 30°04' W 093°25'2 4.8
2017-Nov-16 01:01N 30°04' W 093°22'2 3.7
2017-Nov-16 00:31N 30°05' W 093°20'1 2.5
2017-Nov-16 00:01N 30°06' W 093°20'2 4.4
2017-Nov-15 23:31N 30°08' W 093°20'1 1.2
2017-Nov-15 23:01N 30°08' W 093°20'0 0.9
2017-Nov-15 22:31N 30°08' W 093°20'0 0.6
2017-Nov-15 22:01N 30°08' W 093°19'0 0.0
2017-Nov-15 21:31N 30°08' W 093°19'0 0.0
2017-Nov-15 21:01N 30°08' W 093°19'0 0.0
2017-Nov-15 20:31N 30°08' W 093°19'0 0.0
2017-Nov-15 20:01N 30°08' W 093°19'0 0.0
2017-Nov-15 19:31N 30°08' W 093°19'0 0.0
2017-Nov-15 19:01N 30°08' W 093°19'0 0.0
2017-Nov-15 18:31N 30°08' W 093°19'0 0.0
2017-Nov-15 18:01N 30°08' W 093°19'0 0.0
2017-Nov-15 17:31N 30°08' W 093°19'0 0.0
2017-Nov-15 17:01N 30°08' W 093°19'0 0.0
2017-Nov-15 16:30N 30°08' W 093°19'0 0.0
2017-Nov-15 16:01N 30°08' W 093°19'0 0.0
2017-Nov-15 15:31N 30°08' W 093°19'0 0.0
2017-Nov-15 14:59N 30°08' W 093°19'0 0.0
2017-Nov-15 14:29N 30°08' W 093°19'0 0.0
2017-Nov-15 13:59N 30°08' W 093°19'0 0.0
2017-Nov-15 13:29N 30°08' W 093°19'0 0.0
2017-Nov-15 12:59N 30°08' W 093°19'0 0.0
2017-Nov-15 12:29N 30°08' W 093°19'0 0.0
2017-Nov-15 11:59N 30°08' W 093°19'0 0.0
2017-Nov-15 11:29N 30°08' W 093°19'0 0.0
2017-Nov-15 10:59N 30°08' W 093°19'0 0.0
2017-Nov-15 10:29N 30°08' W 093°19'0 0.0
2017-Nov-15 09:59N 30°08' W 093°19'0 0.0
2017-Nov-15 09:29N 30°08' W 093°19'0 0.0
2017-Nov-15 08:59N 30°08' W 093°19'0 0.0
2017-Nov-15 08:29N 30°08' W 093°19'0 0.0
2017-Nov-15 07:59N 30°08' W 093°19'0 0.0
2017-Nov-15 07:29N 30°08' W 093°19'0 0.0
2017-Nov-15 06:59N 30°08' W 093°19'0 0.0
2017-Nov-15 06:29N 30°08' W 093°19'0 0.0
2017-Nov-15 05:59N 30°08' W 093°19'0 0.0
2017-Nov-15 05:29N 30°08' W 093°19'0 0.0
2017-Nov-15 04:59N 30°08' W 093°19'0 0.0
2017-Nov-15 04:29N 30°08' W 093°19'0 0.0
2017-Nov-15 03:59N 30°08' W 093°19'0 0.0
2017-Nov-15 03:29N 30°08' W 093°19'0 0.0
2017-Nov-15 02:59N 30°08' W 093°19'0 0.0
2017-Nov-15 02:29N 30°08' W 093°19'0 0.0
2017-Nov-15 01:59N 30°08' W 093°19'0 0.0
2017-Nov-15 01:29N 30°08' W 093°19'0 0.0
2017-Nov-15 00:59N 30°08' W 093°19'1 1.8
2017-Nov-15 00:30N 30°08' W 093°20'2 4.2
2017-Nov-15 00:00N 30°05' W 093°20'1 2.6
2017-Nov-14 23:27N 30°04' W 093°21'1 1.7
2017-Nov-14 22:58N 30°04' W 093°21'0 0.0
2017-Nov-14 22:28N 30°04' W 093°21'0 0.0
2017-Nov-14 21:58N 30°04' W 093°21'0 0.0
2017-Nov-14 21:28N 30°04' W 093°21'0 0.0
2017-Nov-14 20:58N 30°04' W 093°21'0 0.0
2017-Nov-14 20:28N 30°04' W 093°21'0 0.0
2017-Nov-14 19:58N 30°04' W 093°21'0 0.0
2017-Nov-14 19:28N 30°04' W 093°21'0 0.0
2017-Nov-14 18:58N 30°04' W 093°21'0 0.0
2017-Nov-14 18:28N 30°04' W 093°21'0 0.0
2017-Nov-14 17:58N 30°04' W 093°21'0 0.0
2017-Nov-14 17:28N 30°04' W 093°21'0 0.0
2017-Nov-14 16:58N 30°04' W 093°21'0 0.0
2017-Nov-14 16:28N 30°04' W 093°21'0 0.0
2017-Nov-14 15:58N 30°04' W 093°21'0 0.0
2017-Nov-14 15:28N 30°04' W 093°21'0 0.0
2017-Nov-14 14:58N 30°04' W 093°21'0 0.0
2017-Nov-14 14:28N 30°04' W 093°21'0 0.0
2017-Nov-14 13:58N 30°04' W 093°21'0 0.5
2017-Nov-14 13:30N 30°04' W 093°21'1 1.1
2017-Nov-14 13:00N 30°04' W 093°21'0 0.0
2017-Nov-14 11:35N 30°04' W 093°21'0 0.0
2017-Nov-14 11:25N 30°04' W 093°21'0 0.2
2017-Nov-14 10:59N 30°04' W 093°21'1 3.0
2017-Nov-14 10:29N 30°04' W 093°22'98 2.7
2017-Nov-12 22:49N 29°44' W 095°12'0 0.0
2017-Nov-12 21:40N 29°44' W 095°12'0 0.0
2017-Nov-12 21:10N 29°44' W 095°12'0 0.0
2017-Nov-12 20:59N 29°44' W 095°12'0 0.0
2017-Nov-12 20:29N 29°44' W 095°12'0 0.0
2017-Nov-12 19:29N 29°44' W 095°12'0 0.0
2017-Nov-12 17:29N 29°44' W 095°12'0 0.0
2017-Nov-12 16:56N 29°44' W 095°12'0 0.0
2017-Nov-12 16:27N 29°44' W 095°12'0 0.2
2017-Nov-12 15:13N 29°44' W 095°12'0 0.0
2017-Nov-12 14:48N 29°44' W 095°12'0 0.0
2017-Nov-12 14:13N 29°44' W 095°12'0 0.0
2017-Nov-12 13:40N 29°44' W 095°12'0 0.0
2017-Nov-12 13:27N 29°44' W 095°12'0 0.0
2017-Nov-12 13:00N 29°44' W 095°12'0 0.0
2017-Nov-12 12:19N 29°44' W 095°12'0 0.0
2017-Nov-12 11:46N 29°44' W 095°12'0 0.4
2017-Nov-12 11:24N 29°44' W 095°12'0 0.0
2017-Nov-12 10:56N 29°44' W 095°12'0 0.0
2017-Nov-12 10:20N 29°44' W 095°12'0 0.0
2017-Nov-12 09:48N 29°44' W 095°12'0 0.0
2017-Nov-12 07:11N 29°44' W 095°12'0 0.0
2017-Nov-12 06:50N 29°44' W 095°12'0 0.0
2017-Nov-12 06:05N 29°44' W 095°12'0 0.0
2017-Nov-12 05:48N 29°44' W 095°12'0 0.0
2017-Nov-12 05:24N 29°44' W 095°12'0 0.0
2017-Nov-12 04:37N 29°44' W 095°12'0 0.0
2017-Nov-12 04:23N 29°44' W 095°12'0 1.0
2017-Nov-12 04:00N 29°44' W 095°12'2 4.2
2017-Nov-12 03:30N 29°45' W 095°10'2 4.4
2017-Nov-12 03:00N 29°44' W 095°07'3 5.2
2017-Nov-12 02:29N 29°46' W 095°05'  
2017-Nov-09 17:08N 29°44' W 095°03'1 5.2
2017-Nov-09 16:58N 29°44' W 095°02'2 4.3
2017-Nov-09 16:30N 29°42' W 095°01'  

Dump ship's entire track history